Terminal Aerodrome Forecast
Issued by NWS

Home | Current Version | Previous Version | Text Only | Print | Product List | Glossary On
Versions: 1 2 3 4 5 6 7 8 9 10 11 12 13 14 15 16 17 18 19 20 21
000
FTUS41 KBGM 121742
TAFITH
TAF
KITH 121742Z 1218/1318 28010KT 6SM -SHSN OVC015
     FM122000 29015G20KT 3SM -SN BLSN OVC015
     FM130000 29015G20KT 5SM -SHSN OVC015
     FM130700 29015G25KT 2SM -SN BLSN OVC015=

USA.gov is the U.S. government's official web portal to all federal, state and local government web resources and services.